createdAt,value
2018-05-14T00:00:09.045Z,30.52
2018-05-14T00:02:37.414Z,26.17
2018-05-14T00:05:05.011Z,25.58
2018-05-14T00:07:32.637Z,19.62
2018-05-14T00:10:00.255Z,24.17
2018-05-14T00:12:27.889Z,26.52
2018-05-14T00:14:55.486Z,23.98
2018-05-14T00:17:23.106Z,29.15
2018-05-14T00:19:51.481Z,17.73
2018-05-14T00:22:19.148Z,21.85
2018-05-14T00:24:46.737Z,21.10
2018-05-14T00:27:14.493Z,19.58
2018-05-14T00:29:42.115Z,19.77
2018-05-14T00:32:09.698Z,17.08
2018-05-14T00:34:38.094Z,22.15
2018-05-14T00:37:05.674Z,19.35
2018-05-14T00:39:33.298Z,19.50
2018-05-14T00:42:01.642Z,25.48
2018-05-14T00:44:29.228Z,24.73
2018-05-14T00:46:57.629Z,27.40
2018-05-14T00:49:25.323Z,27.58
2018-05-14T00:51:52.895Z,24.95
2018-05-14T00:54:20.495Z,34.28
2018-05-14T00:56:48.895Z,25.85
2018-05-14T00:59:16.480Z,25.83
2018-05-14T01:01:44.116Z,28.45
2018-05-14T01:04:11.726Z,23.40
2018-05-14T01:06:39.397Z,24.52
2018-05-14T01:09:17.156Z,27.30
2018-05-14T01:11:48.495Z,23.62
2018-05-14T01:14:19.397Z,23.50
2018-05-14T01:16:50.267Z,24.25
2018-05-14T01:19:19.977Z,23.75
2018-05-14T01:21:49.925Z,20.92
2018-05-14T01:24:19.315Z,23.95
2018-05-14T01:26:57.872Z,19.98
2018-05-14T01:29:25.490Z,17.00
2018-05-14T01:31:53.882Z,20.55
2018-05-14T01:34:21.473Z,21.70
2018-05-14T01:36:49.139Z,15.45
2018-05-14T01:39:16.728Z,14.75
2018-05-14T01:41:44.326Z,14.30
2018-05-14T01:44:11.987Z,17.23
2018-05-14T01:46:39.634Z,12.95
2018-05-14T01:49:07.301Z,13.20
2018-05-14T01:51:34.905Z,9.73
2018-05-14T01:54:02.535Z,12.65
2018-05-14T01:56:30.175Z,11.12
2018-05-14T01:58:57.767Z,10.32
2018-05-14T02:01:25.411Z,10.63
2018-05-14T02:03:53.019Z,10.30
2018-05-14T02:06:21.443Z,11.18
2018-05-14T02:08:49.070Z,10.68
2018-05-14T02:11:17.450Z,11.07
2018-05-14T02:13:45.866Z,12.35
2018-05-14T02:16:13.478Z,10.13
2018-05-14T02:18:41.139Z,12.10
2018-05-14T02:21:08.779Z,11.07
2018-05-14T02:23:36.424Z,11.93
2018-05-14T02:26:04.101Z,12.13
2018-05-14T02:28:31.702Z,15.27
2018-05-14T02:30:59.368Z,13.60
2018-05-14T02:33:27.750Z,14.30
2018-05-14T02:35:56.185Z,14.43
2018-05-14T02:38:23.983Z,13.15
2018-05-14T02:40:51.616Z,15.40
2018-05-14T02:43:19.254Z,13.52
2018-05-14T02:45:46.863Z,14.10
2018-05-14T02:48:14.544Z,15.30
2018-05-14T02:50:42.932Z,14.40
2018-05-14T02:53:10.602Z,12.80
2018-05-14T02:55:38.249Z,14.02
2018-05-14T02:58:05.927Z,15.10
2018-05-14T03:00:33.612Z,15.20
2018-05-14T03:03:01.250Z,13.77
2018-05-14T03:05:28.917Z,15.85
2018-05-14T03:07:56.556Z,15.70
2018-05-14T03:10:24.995Z,14.85
2018-05-14T03:12:52.648Z,16.30
2018-05-14T03:15:21.070Z,14.55
2018-05-14T03:17:49.992Z,18.37
2018-05-14T03:20:17.618Z,15.80
2018-05-14T03:22:45.291Z,17.35
2018-05-14T03:25:12.905Z,18.85
2018-05-14T03:27:41.485Z,14.63
2018-05-14T03:30:09.131Z,14.52
2018-05-14T03:32:36.731Z,15.63
2018-05-14T03:35:04.414Z,13.40
2018-05-14T03:37:32.086Z,15.75
2018-05-14T03:39:59.710Z,17.17
2018-05-14T03:42:27.361Z,13.68
2018-05-14T03:44:55.064Z,17.85
2018-05-14T03:47:22.711Z,18.00
2018-05-14T03:49:50.359Z,15.38
2018-05-14T03:52:18.078Z,17.67
2018-05-14T03:54:45.749Z,20.25
2018-05-14T03:57:14.160Z,13.57
2018-05-14T03:59:53.507Z,16.80
2018-05-14T04:02:33.073Z,13.82
2018-05-14T04:05:13.462Z,16.37
2018-05-14T04:07:41.839Z,17.48
2018-05-14T04:10:10.286Z,15.57
2018-05-14T04:12:37.906Z,21.52
2018-05-14T04:15:05.566Z,18.55
2018-05-14T04:17:33.203Z,19.60
2018-05-14T04:20:01.636Z,16.20
2018-05-14T04:22:29.310Z,19.20
2018-05-14T04:24:56.942Z,15.30
2018-05-14T04:27:24.603Z,18.60
2018-05-14T04:29:52.216Z,17.23
2018-05-14T04:32:19.873Z,20.40
2018-05-14T04:34:47.527Z,17.30
2018-05-14T04:37:15.148Z,16.35
2018-05-14T04:39:42.794Z,18.50
2018-05-14T04:42:10.443Z,19.37
2018-05-14T04:44:38.047Z,20.27
2018-05-14T04:47:05.687Z,15.00
2018-05-14T04:49:33.342Z,20.30
2018-05-14T04:52:01.765Z,19.75
2018-05-14T04:54:29.433Z,15.82
2018-05-14T04:56:57.089Z,15.70
2018-05-14T04:59:24.720Z,13.05
2018-05-14T05:01:52.371Z,18.33
2018-05-14T05:04:19.982Z,12.00
2018-05-14T05:06:47.645Z,11.18
2018-05-14T05:09:15.233Z,13.65
2018-05-14T05:11:42.884Z,12.27
2018-05-14T05:14:10.541Z,12.63
2018-05-14T05:16:38.173Z,8.88
2018-05-14T05:19:05.822Z,12.90
2018-05-14T05:21:33.475Z,10.60
2018-05-14T05:24:01.846Z,10.13
2018-05-14T05:26:30.214Z,11.20
2018-05-14T05:28:58.602Z,8.73
2018-05-14T05:31:27.032Z,12.68
2018-05-14T05:33:54.700Z,10.35
2018-05-14T05:36:22.310Z,16.00
2018-05-14T05:38:50.722Z,14.65
2018-05-14T05:41:18.346Z,9.55
2018-05-14T05:43:46.879Z,18.02
2018-05-14T05:46:14.954Z,11.55
2018-05-14T05:48:42.536Z,10.25
2018-05-14T05:51:10.222Z,10.82
2018-05-14T05:53:37.837Z,10.02
2018-05-14T05:56:05.468Z,14.25
2018-05-14T05:58:33.196Z,14.77
2018-05-14T06:01:01.137Z,16.87
2018-05-14T06:03:28.895Z,14.87
2018-05-14T06:05:56.478Z,17.35
2018-05-14T06:08:24.126Z,11.98
2018-05-14T06:10:51.777Z,12.75
2018-05-14T06:13:19.381Z,10.75
2018-05-14T06:15:47.068Z,16.02
2018-05-14T06:18:14.706Z,11.45
2018-05-14T06:20:42.340Z,16.67
2018-05-14T06:23:09.987Z,23.83
2018-05-14T06:25:37.614Z,16.92
2018-05-14T06:28:06.008Z,11.63
2018-05-14T06:30:33.623Z,10.50
2018-05-14T06:33:01.263Z,11.88
2018-05-14T06:35:28.898Z,12.25
2018-05-14T06:37:56.706Z,15.65
2018-05-14T06:40:24.235Z,27.27
2018-05-14T06:42:51.877Z,16.10
2018-05-14T06:45:19.531Z,14.98
2018-05-14T06:47:48.705Z,27.42
2018-05-14T06:50:17.420Z,31.80
2018-05-14T06:52:45.566Z,25.52
2018-05-14T06:55:13.343Z,31.60
2018-05-14T06:57:41.002Z,35.05
2018-05-14T07:00:09.463Z,30.25
2018-05-14T07:02:37.864Z,47.15
2018-05-14T07:05:06.312Z,31.00
2018-05-14T07:07:33.983Z,31.45
2018-05-14T07:10:01.579Z,35.05
2018-05-14T07:12:29.963Z,29.30
2018-05-14T07:14:57.729Z,38.75
2018-05-14T07:17:25.365Z,31.12
2018-05-14T07:19:53.813Z,33.58
2018-05-14T07:22:21.520Z,29.92
2018-05-14T07:24:49.244Z,26.83
2018-05-14T07:27:16.844Z,36.33
2018-05-14T07:29:44.430Z,29.48
2018-05-14T07:32:12.845Z,28.40
2018-05-14T07:34:40.544Z,43.03
2018-05-14T07:37:08.316Z,30.45
2018-05-14T07:39:36.756Z,38.10
2018-05-14T07:42:04.433Z,38.35
2018-05-14T07:44:32.951Z,54.55
2018-05-14T07:47:01.950Z,39.35
2018-05-14T07:49:30.817Z,43.08
2018-05-14T07:51:58.446Z,41.78
2018-05-14T07:54:26.155Z,48.65
2018-05-14T07:56:53.733Z,42.22
2018-05-14T07:59:21.494Z,41.70
2018-05-14T08:01:49.151Z,44.42
2018-05-14T08:04:16.840Z,40.53
2018-05-14T08:06:44.464Z,47.10
2018-05-14T08:09:12.106Z,33.85
2018-05-14T08:11:39.746Z,36.47
2018-05-14T08:14:08.142Z,47.15
2018-05-14T08:16:36.967Z,40.40
2018-05-14T08:19:04.702Z,36.65
2018-05-14T08:21:32.337Z,37.03
2018-05-14T08:24:00.744Z,48.45
2018-05-14T08:26:28.516Z,49.58
2018-05-14T08:28:56.121Z,44.45
2018-05-14T08:31:23.776Z,38.28
2018-05-14T08:33:51.451Z,45.05
2018-05-14T08:36:19.091Z,45.33
2018-05-14T08:38:47.477Z,44.10
2018-05-14T08:41:16.520Z,44.00
2018-05-14T08:43:44.107Z,46.83
2018-05-14T08:46:12.552Z,42.05
2018-05-14T08:48:40.138Z,45.83
2018-05-14T08:51:07.777Z,37.25
2018-05-14T08:53:35.473Z,39.53
2018-05-14T08:56:03.910Z,43.25
2018-05-14T08:58:31.497Z,38.85
2018-05-14T09:00:59.182Z,50.53
2018-05-14T09:03:27.601Z,50.28
2018-05-14T09:05:55.237Z,44.88
2018-05-14T09:08:22.890Z,42.30
2018-05-14T09:10:51.284Z,47.25
2018-05-14T09:13:18.872Z,42.83
2018-05-14T09:15:47.853Z,49.38
2018-05-14T09:18:15.571Z,48.45
2018-05-14T09:20:43.167Z,46.45
2018-05-14T09:23:10.886Z,49.95
2018-05-14T09:25:38.670Z,56.08
2018-05-14T09:28:07.050Z,50.53
2018-05-14T09:30:34.693Z,43.42
2018-05-14T09:33:02.366Z,50.22
2018-05-14T09:35:30.005Z,51.97
2018-05-14T09:37:57.963Z,51.80
2018-05-14T09:40:26.336Z,43.97
2018-05-14T09:42:54.011Z,45.55
2018-05-14T09:45:21.604Z,44.33
2018-05-14T09:47:49.207Z,45.10
2018-05-14T09:50:16.861Z,51.10
2018-05-14T09:52:45.208Z,49.72
2018-05-14T09:55:12.844Z,42.80
2018-05-14T09:57:40.538Z,43.70
2018-05-14T10:00:08.199Z,43.35
2018-05-14T10:02:35.806Z,39.28
2018-05-14T10:05:03.884Z,41.42
2018-05-14T10:07:31.469Z,37.92
2018-05-14T10:09:59.113Z,47.10
2018-05-14T10:12:26.737Z,38.92
2018-05-14T10:14:54.354Z,36.95
2018-05-14T10:17:21.983Z,35.13
2018-05-14T10:19:49.639Z,32.97
2018-05-14T10:22:17.991Z,37.58
2018-05-14T10:24:45.860Z,34.88
2018-05-14T10:27:13.814Z,28.87
2018-05-14T10:29:41.430Z,33.80
2018-05-14T10:32:09.171Z,30.65
2018-05-14T10:34:36.739Z,27.77
2018-05-14T10:37:04.369Z,36.85
2018-05-14T10:39:32.045Z,31.10
2018-05-14T10:42:00.446Z,28.62
2018-05-14T10:44:28.939Z,24.58
2018-05-14T10:46:56.594Z,28.87
2018-05-14T10:49:24.257Z,25.27
2018-05-14T10:51:51.958Z,31.40
2018-05-14T10:54:20.404Z,28.60
2018-05-14T10:56:48.001Z,25.95
2018-05-14T10:59:15.623Z,41.25
2018-05-14T11:01:43.337Z,33.08
2018-05-14T11:04:10.992Z,29.80
2018-05-14T11:06:38.588Z,26.83
2018-05-14T11:09:07.214Z,24.45
2018-05-14T11:11:34.885Z,22.85
2018-05-14T11:14:02.617Z,252.55
2018-05-14T11:16:30.228Z,29.17
2018-05-14T11:18:58.888Z,26.75
2018-05-14T11:21:26.550Z,24.65
2018-05-14T11:23:54.966Z,25.58
2018-05-14T11:26:23.053Z,23.15
2018-05-14T11:28:52.446Z,25.42
2018-05-14T11:31:20.034Z,44.20
2018-05-14T11:33:48.447Z,23.73
2018-05-14T11:36:16.047Z,26.23
2018-05-14T11:38:43.725Z,33.42
2018-05-14T11:41:12.146Z,25.48
2018-05-14T11:43:39.780Z,29.00
2018-05-14T11:46:07.434Z,26.30
2018-05-14T11:48:35.070Z,24.27
2018-05-14T11:51:02.694Z,25.77
2018-05-14T11:53:31.871Z,29.30
2018-05-14T11:55:59.537Z,32.97
2018-05-14T11:58:27.506Z,27.50
2018-05-14T12:00:55.239Z,26.62
2018-05-14T12:03:22.954Z,31.65
2018-05-14T12:05:50.616Z,32.53
2018-05-14T12:08:18.205Z,25.48
2018-05-14T12:10:45.825Z,31.83
2018-05-14T12:13:13.589Z,30.73
2018-05-14T12:15:41.234Z,30.85
2018-05-14T12:18:09.660Z,23.35
2018-05-14T12:20:37.320Z,28.60
2018-05-14T12:23:04.961Z,32.65
2018-05-14T12:25:32.640Z,35.47
2018-05-14T12:28:00.282Z,50.20
2018-05-14T12:30:27.985Z,26.17
2018-05-14T12:32:55.647Z,25.00
2018-05-14T12:35:23.270Z,28.77
2018-05-14T12:37:50.965Z,26.50
2018-05-14T12:40:18.627Z,32.20
2018-05-14T12:42:46.231Z,35.20
2018-05-14T12:45:13.878Z,31.77
2018-05-14T12:47:41.474Z,31.55
2018-05-14T12:50:09.817Z,30.92
2018-05-14T12:52:38.098Z,34.80
2018-05-14T12:55:06.930Z,37.22
2018-05-14T12:57:34.595Z,37.70
2018-05-14T13:00:06.306Z,39.67
2018-05-14T13:02:33.963Z,35.38
2018-05-14T13:05:01.576Z,40.63
2018-05-14T13:07:29.288Z,33.97
2018-05-14T13:09:56.870Z,43.70
2018-05-14T13:12:24.533Z,44.15
2018-05-14T13:14:52.224Z,41.40
2018-05-14T13:17:19.849Z,44.65
2018-05-14T13:19:47.498Z,38.83
2018-05-14T13:22:15.175Z,54.10
2018-05-14T13:24:42.769Z,41.97
2018-05-14T13:27:11.169Z,41.40
2018-05-14T13:29:38.776Z,46.20
2018-05-14T13:32:06.503Z,55.45
2018-05-14T13:34:34.110Z,41.80
2018-05-14T13:37:01.762Z,49.50
2018-05-14T13:39:29.435Z,45.97
2018-05-14T13:41:57.287Z,45.33
2018-05-14T13:44:24.924Z,52.80
2018-05-14T13:46:52.519Z,48.33
2018-05-14T13:49:21.117Z,58.65
2018-05-14T13:51:49.651Z,48.05
2018-05-14T13:54:17.321Z,54.90
2018-05-14T13:56:45.030Z,52.83
2018-05-14T13:59:12.682Z,54.40
2018-05-14T14:01:40.265Z,51.63
2018-05-14T14:04:07.955Z,53.97
2018-05-14T14:06:35.609Z,59.85
2018-05-14T14:09:05.604Z,61.17
2018-05-14T14:11:33.538Z,57.65
2018-05-14T14:14:01.506Z,61.78
2018-05-14T14:16:29.205Z,61.97
2018-05-14T14:18:57.691Z,52.90
2018-05-14T14:21:26.079Z,59.30
2018-05-14T14:23:53.833Z,57.53
2018-05-14T14:26:21.410Z,62.85
2018-05-14T14:28:49.088Z,55.50
2018-05-14T14:31:16.692Z,62.45
2018-05-14T14:33:44.583Z,51.50
2018-05-14T14:36:12.431Z,67.35
2018-05-14T14:38:39.909Z,67.95
2018-05-14T14:41:08.605Z,68.37
2018-05-14T14:43:36.264Z,73.93
2018-05-14T14:46:04.681Z,73.20
2018-05-14T14:48:32.456Z,77.97
2018-05-14T14:51:00.134Z,80.82
2018-05-14T14:53:27.809Z,76.68
2018-05-14T14:55:55.393Z,77.78
2018-05-14T14:58:23.074Z,113.82
2018-05-14T15:00:51.810Z,95.95
2018-05-14T15:03:19.441Z,89.70
2018-05-14T15:05:47.031Z,84.72
2018-05-14T15:08:14.651Z,90.18
2018-05-14T15:10:42.311Z,97.62
2018-05-14T15:13:10.854Z,95.85
2018-05-14T15:15:38.487Z,89.75
2018-05-14T15:18:06.100Z,91.25
2018-05-14T15:20:34.258Z,86.60
2018-05-14T15:23:01.869Z,94.80
2018-05-14T15:25:29.774Z,87.62
2018-05-14T15:27:57.383Z,85.85
2018-05-14T15:30:26.305Z,81.60
2018-05-14T15:32:55.168Z,90.30
2018-05-14T15:35:22.769Z,99.72
2018-05-14T15:37:50.436Z,115.95
2018-05-14T15:40:18.082Z,107.97
2018-05-14T15:42:45.824Z,99.95
2018-05-14T15:45:13.423Z,104.87
2018-05-14T15:47:41.075Z,101.72
2018-05-14T15:50:08.719Z,97.82
2018-05-14T15:52:36.365Z,98.43
2018-05-14T15:55:04.024Z,101.80
2018-05-14T15:57:31.634Z,109.95
2018-05-14T15:59:59.233Z,97.80
2018-05-14T16:02:27.625Z,99.40
2018-05-14T16:04:55.261Z,93.57
2018-05-14T16:07:23.712Z,91.12
2018-05-14T16:09:51.325Z,87.00
2018-05-14T16:12:19.728Z,106.25
2018-05-14T16:14:47.360Z,107.50
2018-05-14T16:17:15.810Z,118.87
2018-05-14T16:19:43.414Z,111.93
2018-05-14T16:22:11.023Z,111.28
2018-05-14T16:24:38.719Z,107.22
2018-05-14T16:27:07.110Z,104.80
2018-05-14T16:29:35.535Z,109.37
2018-05-14T16:32:03.142Z,113.18
2018-05-14T16:34:31.725Z,112.20
2018-05-14T16:36:59.360Z,100.43
2018-05-14T16:39:26.983Z,99.55
2018-05-14T16:41:54.691Z,99.68
2018-05-14T16:44:22.308Z,98.85
2018-05-14T16:46:49.946Z,104.70
2018-05-14T16:49:18.301Z,92.43
2018-05-14T16:51:45.965Z,93.07
2018-05-14T16:54:13.639Z,94.45
2018-05-14T16:56:42.001Z,86.80
2018-05-14T16:59:09.671Z,83.80
2018-05-14T17:01:37.287Z,83.72
2018-05-14T17:04:05.114Z,92.88
2018-05-14T17:06:32.639Z,84.47
2018-05-14T17:09:00.273Z,89.00
2018-05-14T17:11:27.914Z,72.45
2018-05-14T17:13:55.543Z,73.78
2018-05-14T17:16:24.029Z,77.35
2018-05-14T17:18:52.457Z,73.87
2018-05-14T17:21:20.855Z,75.78
2018-05-14T17:23:48.454Z,72.40
2018-05-14T17:26:16.875Z,67.97
2018-05-14T17:28:44.562Z,76.80
2018-05-14T17:31:12.191Z,74.43
2018-05-14T17:33:39.804Z,73.95
2018-05-14T17:36:07.444Z,65.28
2018-05-14T17:38:35.085Z,72.32
2018-05-14T17:41:02.715Z,67.28
2018-05-14T17:43:31.083Z,74.50
2018-05-14T17:45:58.725Z,87.35
2018-05-14T17:48:26.311Z,81.22
2018-05-14T17:50:53.942Z,73.85
2018-05-14T17:53:21.595Z,66.20
2018-05-14T17:55:49.273Z,69.40
2018-05-14T17:58:16.921Z,80.97
2018-05-14T18:00:45.753Z,73.65
2018-05-14T18:03:13.378Z,71.68
2018-05-14T18:05:40.991Z,88.95
2018-05-14T18:08:09.402Z,93.47
2018-05-14T18:10:37.119Z,84.32
2018-05-14T18:13:04.702Z,71.57
2018-05-14T18:15:32.328Z,94.62
2018-05-14T18:17:59.992Z,89.13
2018-05-14T18:20:27.654Z,79.45
2018-05-14T18:22:55.322Z,85.95
2018-05-14T18:25:29.436Z,74.78
2018-05-14T18:28:11.813Z,80.60
2018-05-14T18:30:39.421Z,80.85
2018-05-14T18:33:10.726Z,93.68
2018-05-14T18:35:44.348Z,77.03
2018-05-14T18:38:11.943Z,92.22
2018-05-14T18:40:40.413Z,91.65
2018-05-14T18:43:08.069Z,92.97
2018-05-14T18:45:35.669Z,82.12
2018-05-14T18:48:03.286Z,88.65
2018-05-14T18:50:30.926Z,83.40
2018-05-14T18:52:58.549Z,80.28
2018-05-14T18:55:26.194Z,82.47
2018-05-14T18:57:54.572Z,74.85
2018-05-14T19:00:22.955Z,82.25
2018-05-14T19:02:51.366Z,79.28
2018-05-14T19:05:18.986Z,75.60
2018-05-14T19:07:47.401Z,77.68
2018-05-14T19:10:20.515Z,81.32
2018-05-14T19:12:48.150Z,76.53
2018-05-14T19:15:21.446Z,82.88
2018-05-14T19:17:54.746Z,74.20
2018-05-14T19:20:22.367Z,77.90
2018-05-14T19:22:56.340Z,73.22
2018-05-14T19:25:23.973Z,73.22
2018-05-14T19:28:10.432Z,91.78
2018-05-14T19:30:38.026Z,102.95
2018-05-14T19:33:05.631Z,84.10
2018-05-14T19:35:39.088Z,78.07
2018-05-14T19:38:07.434Z,87.25
2018-05-14T19:40:40.750Z,81.50
2018-05-14T19:43:09.142Z,86.20
2018-05-14T19:45:36.763Z,84.68
2018-05-14T19:48:04.396Z,92.25
2018-05-14T19:50:32.106Z,77.87
2018-05-14T19:52:59.741Z,88.05
2018-05-14T19:55:27.328Z,83.18
2018-05-14T19:57:55.686Z,104.45
2018-05-14T20:00:23.312Z,97.05
2018-05-14T20:02:53.041Z,105.90
2018-05-14T20:05:20.612Z,91.78
2018-05-14T20:07:49.045Z,101.60
2018-05-14T20:10:16.646Z,89.47
2018-05-14T20:12:44.289Z,97.03
2018-05-14T20:15:11.944Z,86.25
2018-05-14T20:17:39.544Z,84.95
2018-05-14T20:20:07.174Z,94.43
2018-05-14T20:22:34.793Z,98.62
2018-05-14T20:25:02.427Z,83.00
2018-05-14T20:27:30.019Z,89.72
2018-05-14T20:29:58.430Z,89.57
2018-05-14T20:32:26.020Z,86.37
2018-05-14T20:34:53.663Z,88.43
2018-05-14T20:37:21.313Z,85.22
2018-05-14T20:39:48.907Z,76.00
2018-05-14T20:42:16.531Z,74.80
2018-05-14T20:44:44.133Z,90.30
2018-05-14T20:47:11.738Z,79.55
2018-05-14T20:49:40.085Z,82.03
2018-05-14T20:52:07.861Z,87.22
2018-05-14T20:54:35.310Z,78.05
2018-05-14T20:57:02.932Z,75.15
2018-05-14T20:59:30.556Z,87.60
2018-05-14T21:01:58.910Z,78.32
2018-05-14T21:04:26.530Z,70.47
2018-05-14T21:06:54.206Z,77.90
2018-05-14T21:09:21.795Z,74.15
2018-05-14T21:11:49.433Z,79.93
2018-05-14T21:14:17.082Z,69.07
2018-05-14T21:16:44.727Z,75.03
2018-05-14T21:19:12.325Z,73.28
2018-05-14T21:21:39.952Z,73.87
2018-05-14T21:24:07.558Z,74.68
2018-05-14T21:26:35.183Z,77.28
2018-05-14T21:29:02.781Z,79.68
2018-05-14T21:31:30.413Z,88.32
2018-05-14T21:33:58.015Z,83.55
2018-05-14T21:36:25.651Z,85.57
2018-05-14T21:38:53.234Z,78.62
2018-05-14T21:41:20.882Z,83.93
2018-05-14T21:43:48.482Z,80.60
2018-05-14T21:46:16.885Z,73.43
2018-05-14T21:48:44.453Z,73.32
2018-05-14T21:51:12.038Z,75.97
2018-05-14T21:53:39.670Z,78.85
2018-05-14T21:56:07.261Z,79.20
2018-05-14T21:58:34.893Z,80.78
2018-05-14T22:01:02.474Z,96.43
2018-05-14T22:03:30.874Z,94.43
2018-05-14T22:05:58.504Z,86.15
2018-05-14T22:08:26.143Z,79.10
2018-05-14T22:10:54.539Z,84.95
2018-05-14T22:13:22.194Z,72.57
2018-05-14T22:15:50.542Z,83.20
2018-05-14T22:18:18.115Z,89.20
2018-05-14T22:20:46.522Z,84.15
2018-05-14T22:23:14.109Z,88.62
2018-05-14T22:25:41.746Z,95.50
2018-05-14T22:28:09.359Z,81.03
2018-05-14T22:30:36.974Z,83.37
2018-05-14T22:33:04.626Z,73.87
2018-05-14T22:35:32.208Z,77.62
2018-05-14T22:37:59.828Z,83.18
2018-05-14T22:40:27.448Z,82.35
2018-05-14T22:42:55.047Z,98.10
2018-05-14T22:45:30.986Z,89.13
2018-05-14T22:47:58.609Z,97.40
2018-05-14T22:50:26.242Z,101.05
2018-05-14T22:52:54.627Z,93.37
2018-05-14T22:55:22.993Z,88.80
2018-05-14T22:57:51.409Z,89.13
2018-05-14T23:00:21.702Z,92.00
2018-05-14T23:02:50.106Z,77.53
2018-05-14T23:05:17.701Z,93.18
2018-05-14T23:07:45.335Z,106.10
2018-05-14T23:10:12.918Z,100.78
2018-05-14T23:12:40.506Z,122.65
2018-05-14T23:15:08.366Z,111.15
2018-05-14T23:17:35.951Z,104.35
2018-05-14T23:20:04.325Z,140.20
2018-05-14T23:22:43.496Z,108.35
2018-05-14T23:25:11.124Z,138.35
2018-05-14T23:27:38.725Z,99.93
2018-05-14T23:30:06.356Z,129.95
2018-05-14T23:32:34.706Z,105.25
2018-05-14T23:35:02.339Z,91.10
2018-05-14T23:37:30.001Z,93.32
2018-05-14T23:39:57.561Z,97.25
2018-05-14T23:42:25.208Z,113.22
2018-05-14T23:44:52.843Z,87.20
2018-05-14T23:47:20.454Z,104.07
2018-05-14T23:49:48.082Z,106.60
2018-05-14T23:52:15.730Z,125.65
2018-05-14T23:54:43.370Z,92.50
2018-05-14T23:57:10.962Z,114.57
2018-05-14T23:59:39.358Z,90.87
